YSB0649 ZSPD-ZBAA
Flight info
| Callsign | YSB0649 |
|---|---|
| Flight time | 1h 46m |
| Altitude | 38100 |
| Route | PIKAS G330 PIMOL A593 DALIM W157 AVBOX |
| Aircraft | A339/H-SADE1E2E3GHIJ1J3J5M1P2RWXY/LB2D1 |
Departure
| Time | 2026-05-05 01:00 |
|---|---|
| Airport | Shanghai Pudong International Airport (ZSPD) |
Arrival
| Time | 2026-05-05 02:46 |
|---|---|
| Airport | Beijing Capital International Airport (ZBAA) |
| Time | Latitude | Longitude | Altitude | Speed | Heading |
|---|---|---|---|---|---|
| 2026-05-04 23:56 | 31.14608 | 121.79855 | 42 ft | 0 kts | 71° |
| 2026-05-05 00:45 | 31.14607 | 121.79851 | 42 ft | 2 kts | 71° |
| 2026-05-05 00:46 | 31.14604 | 121.79840 | 42 ft | 2 kts | 70° |
| 2026-05-05 00:46 | 31.14598 | 121.79824 | 41 ft | 2 kts | 58° |
| 2026-05-05 00:46 | 31.14589 | 121.79810 | 41 ft | 2 kts | 49° |
| 2026-05-05 00:46 | 31.14578 | 121.79797 | 41 ft | 2 kts | 39° |
| 2026-05-05 00:47 | 31.14566 | 121.79787 | 40 ft | 2 kts | 30° |
| 2026-05-05 00:47 | 31.14553 | 121.79780 | 40 ft | 2 kts | 20° |
| 2026-05-05 00:47 | 31.14539 | 121.79775 | 39 ft | 2 kts | 11° |
| 2026-05-05 00:47 | 31.14524 | 121.79773 | 39 ft | 2 kts | 1° |
| 2026-05-05 00:48 | 31.14509 | 121.79773 | 39 ft | 2 kts | 352° |
| 2026-05-05 00:48 | 31.14495 | 121.79777 | 38 ft | 0 kts | 343° |
| 2026-05-05 00:48 | 31.14491 | 121.79778 | 38 ft | 0 kts | 341° |
| 2026-05-05 00:50 | 31.14492 | 121.79778 | 38 ft | 0 kts | 341° |
| 2026-05-05 00:50 | 31.14497 | 121.79776 | 38 ft | 1 kts | 341° |
| 2026-05-05 00:50 | 31.14507 | 121.79771 | 39 ft | 2 kts | 342° |
| 2026-05-05 00:50 | 31.14526 | 121.79765 | 39 ft | 3 kts | 340° |
| 2026-05-05 00:51 | 31.14528 | 121.79764 | 39 ft | 0 kts | 340° |
| 2026-05-05 00:51 | 31.14533 | 121.79761 | 39 ft | 1 kts | 339° |
| 2026-05-05 00:51 | 31.14535 | 121.79761 | 39 ft | 0 kts | 339° |
| 2026-05-05 00:52 | 31.14535 | 121.79760 | 39 ft | 0 kts | 339° |
| 2026-05-05 00:52 | 31.14542 | 121.79757 | 39 ft | 1 kts | 339° |
| 2026-05-05 00:52 | 31.14552 | 121.79752 | 39 ft | 0 kts | 331° |
| 2026-05-05 00:53 | 31.14556 | 121.79748 | 39 ft | 1 kts | 328° |
| 2026-05-05 00:53 | 31.14557 | 121.79748 | 39 ft | 0 kts | 325° |
| 2026-05-05 00:55 | 31.14558 | 121.79747 | 39 ft | 0 kts | 324° |
| 2026-05-05 00:55 | 31.14567 | 121.79732 | 39 ft | 4 kts | 296° |
| 2026-05-05 00:55 | 31.14577 | 121.79674 | 38 ft | 9 kts | 272° |
| 2026-05-05 00:55 | 31.14566 | 121.79582 | 36 ft | 13 kts | 255° |
| 2026-05-05 00:56 | 31.14546 | 121.79467 | 33 ft | 15 kts | 276° |
| 2026-05-05 00:56 | 31.14617 | 121.79382 | 33 ft | 15 kts | 337° |
| 2026-05-05 00:56 | 31.14720 | 121.79339 | 33 ft | 16 kts | 342° |
| 2026-05-05 00:56 | 31.14828 | 121.79298 | 33 ft | 16 kts | 342° |
| 2026-05-05 00:57 | 31.14849 | 121.79291 | 33 ft | 16 kts | 342° |
| 2026-05-05 00:57 | 31.14969 | 121.79247 | 30 ft | 19 kts | 343° |
| 2026-05-05 00:57 | 31.15104 | 121.79198 | 30 ft | 20 kts | 343° |
| 2026-05-05 00:57 | 31.15248 | 121.79146 | 29 ft | 22 kts | 342° |
| 2026-05-05 00:58 | 31.15403 | 121.79089 | 27 ft | 24 kts | 342° |
| 2026-05-05 00:58 | 31.15563 | 121.79028 | 28 ft | 24 kts | 342° |
| 2026-05-05 00:58 | 31.15720 | 121.78970 | 30 ft | 23 kts | 342° |
| 2026-05-05 00:58 | 31.15869 | 121.78913 | 30 ft | 16 kts | 341° |
| 2026-05-05 00:59 | 31.15950 | 121.78837 | 30 ft | 15 kts | 284° |
| 2026-05-05 00:59 | 31.15932 | 121.78735 | 30 ft | 4 kts | 236° |
| 2026-05-05 00:59 | 31.15905 | 121.78709 | 30 ft | 5 kts | 202° |
| 2026-05-05 00:59 | 31.15777 | 121.78738 | 30 ft | 51 kts | 163° |
| 2026-05-05 01:00 | 31.15184 | 121.78955 | 30 ft | 124 kts | 162° |
| 2026-05-05 01:00 | 31.14176 | 121.79321 | 103 ft | 173 kts | 163° |
| 2026-05-05 01:00 | 31.13010 | 121.79752 | 658 ft | 174 kts | 162° |
| 2026-05-05 01:00 | 31.11808 | 121.80183 | 1139 ft | 189 kts | 164° |
| 2026-05-05 01:01 | 31.10488 | 121.80615 | 1648 ft | 208 kts | 165° |
| 2026-05-05 01:01 | 31.09033 | 121.81082 | 2201 ft | 225 kts | 165° |
| 2026-05-05 01:01 | 31.07469 | 121.81586 | 2664 ft | 243 kts | 164° |
| 2026-05-05 01:01 | 31.05798 | 121.82126 | 3231 ft | 255 kts | 164° |
| 2026-05-05 01:02 | 31.04088 | 121.82680 | 3970 ft | 260 kts | 164° |
| 2026-05-05 01:02 | 31.02326 | 121.83170 | 4670 ft | 265 kts | 175° |
| 2026-05-05 01:02 | 31.00478 | 121.82842 | 5369 ft | 271 kts | 204° |
| 2026-05-05 01:02 | 30.98978 | 121.81533 | 6050 ft | 276 kts | 233° |
| 2026-05-05 01:03 | 30.98143 | 121.79539 | 6727 ft | 278 kts | 253° |
| 2026-05-05 01:03 | 30.97590 | 121.77405 | 7438 ft | 281 kts | 254° |
| 2026-05-05 01:03 | 30.97020 | 121.75217 | 8168 ft | 283 kts | 254° |
| 2026-05-05 01:03 | 30.96474 | 121.73027 | 8870 ft | 285 kts | 261° |
| 2026-05-05 01:04 | 30.96368 | 121.70739 | 9551 ft | 285 kts | 277° |
| 2026-05-05 01:04 | 30.97227 | 121.66214 | 10738 ft | 297 kts | 294° |
| 2026-05-05 01:04 | 30.98523 | 121.64262 | 11019 ft | 315 kts | 321° |
| 2026-05-05 01:05 | 31.00413 | 121.62831 | 11467 ft | 326 kts | 328° |
| 2026-05-05 01:05 | 31.02364 | 121.61517 | 12143 ft | 330 kts | 328° |
| 2026-05-05 01:05 | 31.04338 | 121.60157 | 12844 ft | 331 kts | 327° |
| 2026-05-05 01:05 | 31.06319 | 121.58744 | 13525 ft | 334 kts | 326° |
| 2026-05-05 01:06 | 31.08297 | 121.57295 | 14205 ft | 336 kts | 325° |
| 2026-05-05 01:06 | 31.10267 | 121.55823 | 14856 ft | 340 kts | 324° |
| 2026-05-05 01:06 | 31.12259 | 121.54321 | 15498 ft | 343 kts | 324° |
| 2026-05-05 01:06 | 31.14267 | 121.52798 | 16133 ft | 347 kts | 324° |
| 2026-05-05 01:07 | 31.16281 | 121.51262 | 16777 ft | 350 kts | 324° |
| 2026-05-05 01:07 | 31.18331 | 121.49696 | 17411 ft | 353 kts | 324° |
| 2026-05-05 01:07 | 31.20389 | 121.48122 | 18037 ft | 356 kts | 324° |
| 2026-05-05 01:07 | 31.22444 | 121.46547 | 18659 ft | 359 kts | 324° |
| 2026-05-05 01:08 | 31.24546 | 121.44934 | 19279 ft | 362 kts | 324° |
| 2026-05-05 01:08 | 31.26657 | 121.43315 | 19875 ft | 365 kts | 323° |
| 2026-05-05 01:08 | 31.28791 | 121.41676 | 20451 ft | 369 kts | 323° |
| 2026-05-05 01:08 | 31.30953 | 121.40014 | 21002 ft | 372 kts | 323° |
| 2026-05-05 01:09 | 31.33104 | 121.38357 | 21538 ft | 376 kts | 323° |
| 2026-05-05 01:09 | 31.35302 | 121.36667 | 22092 ft | 379 kts | 323° |
| 2026-05-05 01:09 | 31.37515 | 121.34963 | 22611 ft | 382 kts | 323° |
| 2026-05-05 01:09 | 31.39744 | 121.33245 | 23131 ft | 385 kts | 323° |
| 2026-05-05 01:10 | 31.41985 | 121.31518 | 23640 ft | 388 kts | 323° |
| 2026-05-05 01:10 | 31.44250 | 121.29772 | 24136 ft | 391 kts | 323° |
| 2026-05-05 01:10 | 31.46532 | 121.28013 | 24622 ft | 393 kts | 322° |
| 2026-05-05 01:10 | 31.48825 | 121.26244 | 25082 ft | 396 kts | 322° |
| 2026-05-05 01:11 | 31.51129 | 121.24464 | 25544 ft | 398 kts | 322° |
| 2026-05-05 01:11 | 31.53451 | 121.22669 | 25993 ft | 400 kts | 322° |
| 2026-05-05 01:11 | 31.55772 | 121.20873 | 26419 ft | 403 kts | 322° |
| 2026-05-05 01:11 | 31.58126 | 121.19049 | 26822 ft | 406 kts | 322° |
| 2026-05-05 01:12 | 31.60474 | 121.17229 | 27220 ft | 408 kts | 321° |
| 2026-05-05 01:12 | 31.62859 | 121.15381 | 27625 ft | 411 kts | 321° |
| 2026-05-05 01:12 | 31.65225 | 121.13545 | 28038 ft | 412 kts | 321° |
| 2026-05-05 01:12 | 31.67635 | 121.11671 | 28430 ft | 414 kts | 321° |
| 2026-05-05 01:13 | 31.70040 | 121.09803 | 28837 ft | 416 kts | 321° |
| 2026-05-05 01:13 | 31.72472 | 121.07914 | 29214 ft | 418 kts | 321° |
| 2026-05-05 01:13 | 31.74889 | 121.06033 | 29571 ft | 420 kts | 321° |
| 2026-05-05 01:13 | 31.77325 | 121.04137 | 29899 ft | 422 kts | 321° |
| 2026-05-05 01:14 | 31.79766 | 121.02238 | 30185 ft | 426 kts | 321° |
| 2026-05-05 01:14 | 31.82255 | 121.00294 | 30336 ft | 432 kts | 321° |
| 2026-05-05 01:14 | 31.84779 | 120.98325 | 30566 ft | 435 kts | 321° |
| 2026-05-05 01:14 | 31.87309 | 120.96355 | 30875 ft | 437 kts | 321° |
| 2026-05-05 01:15 | 31.89844 | 120.94376 | 31160 ft | 439 kts | 321° |
| 2026-05-05 01:15 | 31.92408 | 120.92370 | 31440 ft | 441 kts | 321° |
| 2026-05-05 01:15 | 31.94964 | 120.90370 | 31732 ft | 443 kts | 321° |
| 2026-05-05 01:15 | 31.97525 | 120.88364 | 32000 ft | 445 kts | 321° |
| 2026-05-05 01:16 | 32.00109 | 120.86339 | 32280 ft | 446 kts | 321° |
| 2026-05-05 01:16 | 32.02699 | 120.84309 | 32537 ft | 448 kts | 321° |
| 2026-05-05 01:16 | 32.05275 | 120.82291 | 32898 ft | 446 kts | 321° |
| 2026-05-05 01:16 | 32.07837 | 120.80281 | 33276 ft | 444 kts | 320° |
| 2026-05-05 01:17 | 32.10276 | 120.78063 | 33631 ft | 436 kts | 313° |
| 2026-05-05 01:17 | 32.12380 | 120.75528 | 33963 ft | 430 kts | 305° |
| 2026-05-05 01:17 | 32.14138 | 120.72758 | 34271 ft | 424 kts | 298° |
| 2026-05-05 01:17 | 32.15589 | 120.69711 | 34537 ft | 419 kts | 291° |
| 2026-05-05 01:18 | 32.16667 | 120.66562 | 34753 ft | 416 kts | 285° |
| 2026-05-05 01:18 | 32.17393 | 120.63303 | 34975 ft | 413 kts | 278° |
| 2026-05-05 01:18 | 32.17789 | 120.59959 | 35221 ft | 411 kts | 274° |
| 2026-05-05 01:18 | 32.18085 | 120.56593 | 35504 ft | 411 kts | 274° |
| 2026-05-05 01:19 | 32.18362 | 120.53290 | 35780 ft | 410 kts | 274° |
| 2026-05-05 01:19 | 32.18639 | 120.49948 | 36056 ft | 410 kts | 274° |
| 2026-05-05 01:19 | 32.18914 | 120.46593 | 36316 ft | 409 kts | 274° |
| 2026-05-05 01:19 | 32.19186 | 120.43273 | 36572 ft | 409 kts | 274° |
| 2026-05-05 01:20 | 32.19463 | 120.39905 | 36745 ft | 411 kts | 274° |
| 2026-05-05 01:20 | 32.19735 | 120.36596 | 36912 ft | 412 kts | 274° |
| 2026-05-05 01:20 | 32.20010 | 120.33202 | 37084 ft | 413 kts | 274° |
| 2026-05-05 01:20 | 32.20284 | 120.29829 | 37105 ft | 414 kts | 274° |
| 2026-05-05 01:21 | 32.20840 | 120.23090 | 37114 ft | 413 kts | 274° |
| 2026-05-05 01:21 | 32.21393 | 120.16346 | 37118 ft | 414 kts | 274° |
| 2026-05-05 01:22 | 32.21939 | 120.09624 | 37119 ft | 414 kts | 274° |
| 2026-05-05 01:22 | 32.22483 | 120.02860 | 37115 ft | 414 kts | 274° |
| 2026-05-05 01:23 | 32.23021 | 119.96109 | 37110 ft | 415 kts | 274° |
| 2026-05-05 01:23 | 32.23563 | 119.89270 | 37118 ft | 424 kts | 275° |
| 2026-05-05 01:24 | 32.24910 | 119.82462 | 37112 ft | 430 kts | 288° |
| 2026-05-05 01:24 | 32.27580 | 119.76154 | 37113 ft | 436 kts | 300° |
| 2026-05-05 01:25 | 32.31501 | 119.70642 | 37115 ft | 444 kts | 312° |
| 2026-05-05 01:25 | 32.36360 | 119.66138 | 37128 ft | 443 kts | 319° |
| 2026-05-05 01:26 | 32.41341 | 119.61883 | 37118 ft | 441 kts | 319° |
| 2026-05-05 01:26 | 32.46321 | 119.57642 | 37112 ft | 441 kts | 319° |
| 2026-05-05 01:27 | 32.51274 | 119.53387 | 37114 ft | 441 kts | 319° |
| 2026-05-05 01:27 | 32.56235 | 119.49101 | 37374 ft | 442 kts | 319° |
| 2026-05-05 01:28 | 32.58714 | 119.46959 | 37639 ft | 441 kts | 319° |
| 2026-05-05 01:28 | 32.61201 | 119.44807 | 37800 ft | 442 kts | 319° |
| 2026-05-05 01:28 | 32.63677 | 119.42663 | 37942 ft | 443 kts | 319° |
| 2026-05-05 01:28 | 32.66179 | 119.40491 | 38087 ft | 445 kts | 319° |
| 2026-05-05 01:29 | 32.71155 | 119.36172 | 38103 ft | 446 kts | 319° |
| 2026-05-05 01:29 | 32.76166 | 119.31816 | 38100 ft | 445 kts | 319° |
| 2026-05-05 01:30 | 32.81160 | 119.27467 | 38099 ft | 445 kts | 319° |
| 2026-05-05 01:30 | 32.86116 | 119.23144 | 38086 ft | 445 kts | 319° |
| 2026-05-05 01:31 | 32.91121 | 119.18771 | 38104 ft | 445 kts | 319° |
| 2026-05-05 01:31 | 32.96086 | 119.14444 | 38085 ft | 445 kts | 320° |
| 2026-05-05 01:32 | 33.01094 | 119.10147 | 38095 ft | 444 kts | 320° |
| 2026-05-05 01:32 | 33.06100 | 119.05841 | 38078 ft | 443 kts | 320° |
| 2026-05-05 01:33 | 33.11072 | 119.01545 | 38093 ft | 443 kts | 320° |
| 2026-05-05 01:33 | 33.16064 | 118.97224 | 38081 ft | 442 kts | 320° |
| 2026-05-05 01:34 | 33.21024 | 118.92924 | 38077 ft | 442 kts | 320° |
| 2026-05-05 01:34 | 33.25994 | 118.88586 | 38082 ft | 442 kts | 320° |
| 2026-05-05 01:35 | 33.30957 | 118.84251 | 38086 ft | 442 kts | 320° |
| 2026-05-05 01:35 | 33.35920 | 118.79960 | 38081 ft | 442 kts | 320° |
| 2026-05-05 01:36 | 33.40914 | 118.75632 | 38078 ft | 442 kts | 320° |
| 2026-05-05 01:36 | 33.45874 | 118.71321 | 38088 ft | 442 kts | 320° |
| 2026-05-05 01:37 | 33.50867 | 118.66999 | 38087 ft | 441 kts | 321° |
| 2026-05-05 01:37 | 33.55816 | 118.62716 | 38088 ft | 442 kts | 321° |
| 2026-05-05 01:38 | 33.60643 | 118.58528 | 38091 ft | 441 kts | 321° |
| 2026-05-05 01:38 | 33.65640 | 118.54185 | 38078 ft | 442 kts | 321° |
| 2026-05-05 01:39 | 33.70627 | 118.49841 | 38076 ft | 443 kts | 321° |
| 2026-05-05 01:39 | 33.75605 | 118.45496 | 38083 ft | 442 kts | 321° |
| 2026-05-05 01:40 | 33.80570 | 118.41157 | 38074 ft | 442 kts | 321° |
| 2026-05-05 01:40 | 33.85550 | 118.36795 | 38064 ft | 441 kts | 321° |
| 2026-05-05 01:41 | 33.90476 | 118.32472 | 38062 ft | 441 kts | 321° |
| 2026-05-05 01:41 | 33.95446 | 118.28109 | 38066 ft | 441 kts | 321° |
| 2026-05-05 01:42 | 34.00414 | 118.23767 | 38052 ft | 443 kts | 321° |
| 2026-05-05 01:42 | 34.05415 | 118.19417 | 38060 ft | 442 kts | 321° |
| 2026-05-05 01:43 | 34.11897 | 118.13768 | 38064 ft | 442 kts | 321° |
| 2026-05-05 01:43 | 34.19750 | 118.06928 | 38069 ft | 440 kts | 322° |
| 2026-05-05 01:44 | 34.27999 | 118.00829 | 38059 ft | 443 kts | 330° |
| 2026-05-05 01:44 | 34.37054 | 117.96378 | 38067 ft | 447 kts | 339° |
| 2026-05-05 01:45 | 34.46463 | 117.93121 | 38060 ft | 447 kts | 341° |
| 2026-05-05 01:45 | 34.55914 | 117.89823 | 38059 ft | 446 kts | 340° |
| 2026-05-05 01:46 | 34.66951 | 117.85866 | 38066 ft | 446 kts | 340° |
| 2026-05-05 01:46 | 34.79164 | 117.81464 | 38066 ft | 445 kts | 340° |
| 2026-05-05 01:47 | 34.91266 | 117.77060 | 38061 ft | 445 kts | 340° |
| 2026-05-05 01:47 | 35.03107 | 117.72718 | 38067 ft | 445 kts | 340° |
| 2026-05-05 01:48 | 35.26217 | 117.64252 | 38075 ft | 444 kts | 341° |
| 2026-05-05 01:49 | 35.38107 | 117.59868 | 38059 ft | 444 kts | 341° |
| 2026-05-05 01:49 | 35.49886 | 117.55513 | 38059 ft | 443 kts | 341° |
| 2026-05-05 01:50 | 35.61677 | 117.51138 | 38053 ft | 443 kts | 341° |
| 2026-05-05 01:50 | 35.73498 | 117.46741 | 38044 ft | 442 kts | 341° |
| 2026-05-05 01:51 | 35.85228 | 117.42358 | 38049 ft | 441 kts | 341° |
| 2026-05-05 01:51 | 35.96926 | 117.37971 | 38032 ft | 441 kts | 341° |
| 2026-05-05 01:52 | 36.08709 | 117.33594 | 38038 ft | 441 kts | 341° |
| 2026-05-05 01:52 | 36.20457 | 117.29264 | 38022 ft | 440 kts | 341° |
| 2026-05-05 01:53 | 36.27803 | 117.26533 | 38016 ft | 440 kts | 341° |
| 2026-05-05 01:53 | 36.33689 | 117.24340 | 38018 ft | 440 kts | 341° |
| 2026-05-05 01:54 | 36.39534 | 117.22154 | 38017 ft | 439 kts | 340° |
| 2026-05-05 01:54 | 36.45247 | 117.19542 | 38026 ft | 437 kts | 336° |
| 2026-05-05 01:55 | 36.50835 | 117.16655 | 38021 ft | 437 kts | 336° |
| 2026-05-05 01:55 | 36.56451 | 117.13728 | 38008 ft | 437 kts | 336° |
| 2026-05-05 01:56 | 36.62065 | 117.10799 | 37999 ft | 437 kts | 336° |
| 2026-05-05 01:56 | 36.67651 | 117.07882 | 37989 ft | 437 kts | 336° |
| 2026-05-05 01:57 | 36.73221 | 117.04970 | 37974 ft | 437 kts | 336° |
| 2026-05-05 01:57 | 36.78845 | 117.02027 | 37968 ft | 437 kts | 336° |
| 2026-05-05 01:58 | 36.84430 | 116.99098 | 37951 ft | 437 kts | 336° |
| 2026-05-05 01:58 | 36.90044 | 116.96149 | 37952 ft | 437 kts | 336° |
| 2026-05-05 01:59 | 36.95619 | 116.93215 | 37938 ft | 436 kts | 336° |
| 2026-05-05 01:59 | 37.01222 | 116.90262 | 37957 ft | 436 kts | 336° |
| 2026-05-05 02:00 | 37.06799 | 116.87317 | 37958 ft | 436 kts | 336° |
| 2026-05-05 02:00 | 37.12375 | 116.84366 | 37964 ft | 436 kts | 336° |
| 2026-05-05 02:01 | 37.17945 | 116.81412 | 37942 ft | 433 kts | 336° |
| 2026-05-05 02:01 | 37.20652 | 116.79977 | 37953 ft | 420 kts | 336° |
| 2026-05-05 02:01 | 37.23344 | 116.78675 | 37943 ft | 409 kts | 345° |
| 2026-05-05 02:02 | 37.26177 | 116.78402 | 37937 ft | 411 kts | 4° |
| 2026-05-05 02:02 | 37.28951 | 116.79208 | 37931 ft | 419 kts | 19° |
| 2026-05-05 02:02 | 37.31516 | 116.81019 | 37934 ft | 427 kts | 35° |
| 2026-05-05 02:02 | 37.33593 | 116.83717 | 37946 ft | 437 kts | 52° |
| 2026-05-05 02:03 | 37.34979 | 116.87150 | 37920 ft | 447 kts | 69° |
| 2026-05-05 02:03 | 37.35485 | 116.91018 | 37918 ft | 456 kts | 88° |
| 2026-05-05 02:03 | 37.35017 | 116.94939 | 37924 ft | 463 kts | 107° |
| 2026-05-05 02:03 | 37.33581 | 116.98531 | 37911 ft | 468 kts | 126° |
| 2026-05-05 02:04 | 37.31277 | 117.01416 | 37911 ft | 468 kts | 146° |
| 2026-05-05 02:04 | 37.28410 | 117.03275 | 37933 ft | 467 kts | 159° |
| 2026-05-05 02:04 | 37.22346 | 117.06171 | 37929 ft | 467 kts | 160° |
| 2026-05-05 02:05 | 37.16278 | 117.09054 | 37922 ft | 466 kts | 169° |
| 2026-05-05 02:05 | 37.13067 | 117.09383 | 37912 ft | 459 kts | 190° |
| 2026-05-05 02:05 | 37.10018 | 117.08392 | 37920 ft | 451 kts | 209° |
| 2026-05-05 02:06 | 37.07414 | 117.06298 | 37935 ft | 442 kts | 227° |
| 2026-05-05 02:06 | 37.05504 | 117.03415 | 37938 ft | 433 kts | 244° |
| 2026-05-05 02:06 | 37.04367 | 116.99979 | 37947 ft | 423 kts | 261° |
| 2026-05-05 02:06 | 37.04083 | 116.96364 | 37942 ft | 416 kts | 277° |
| 2026-05-05 02:07 | 37.04619 | 116.92864 | 37941 ft | 410 kts | 292° |
| 2026-05-05 02:07 | 37.05901 | 116.89713 | 37955 ft | 407 kts | 307° |
| 2026-05-05 02:07 | 37.07805 | 116.87157 | 37966 ft | 406 kts | 322° |
| 2026-05-05 02:07 | 37.10207 | 116.85340 | 37965 ft | 407 kts | 335° |
| 2026-05-05 02:08 | 37.15442 | 116.82649 | 37947 ft | 406 kts | 336° |
| 2026-05-05 02:08 | 37.20687 | 116.79969 | 37950 ft | 406 kts | 336° |
| 2026-05-05 02:09 | 37.26129 | 116.78470 | 37925 ft | 412 kts | 3° |
| 2026-05-05 02:09 | 37.28954 | 116.79262 | 37927 ft | 419 kts | 19° |
| 2026-05-05 02:09 | 37.31526 | 116.81065 | 37932 ft | 428 kts | 35° |
| 2026-05-05 02:10 | 37.33592 | 116.83745 | 37939 ft | 437 kts | 52° |
| 2026-05-05 02:10 | 37.34977 | 116.87170 | 37926 ft | 446 kts | 70° |
| 2026-05-05 02:10 | 37.35480 | 116.91049 | 37929 ft | 456 kts | 88° |
| 2026-05-05 02:10 | 37.35008 | 116.94961 | 37938 ft | 463 kts | 107° |
| 2026-05-05 02:11 | 37.33543 | 116.98594 | 37926 ft | 467 kts | 127° |
| 2026-05-05 02:11 | 37.31275 | 117.01414 | 37916 ft | 468 kts | 146° |
| 2026-05-05 02:11 | 37.28397 | 117.03279 | 37929 ft | 467 kts | 159° |
| 2026-05-05 02:11 | 37.25372 | 117.04735 | 37926 ft | 466 kts | 161° |
| 2026-05-05 02:12 | 37.16277 | 117.09055 | 37912 ft | 465 kts | 169° |
| 2026-05-05 02:12 | 37.13071 | 117.09381 | 37902 ft | 458 kts | 190° |
| 2026-05-05 02:13 | 37.10059 | 117.08411 | 37911 ft | 450 kts | 208° |
| 2026-05-05 02:13 | 37.07447 | 117.06332 | 37923 ft | 441 kts | 227° |
| 2026-05-05 02:13 | 37.05502 | 117.03409 | 37928 ft | 431 kts | 245° |
| 2026-05-05 02:13 | 37.04378 | 117.00019 | 37933 ft | 422 kts | 261° |
| 2026-05-05 02:14 | 37.04085 | 116.96404 | 37928 ft | 415 kts | 277° |
| 2026-05-05 02:14 | 37.04608 | 116.92914 | 37925 ft | 409 kts | 292° |
| 2026-05-05 02:14 | 37.05881 | 116.89754 | 37936 ft | 407 kts | 307° |
| 2026-05-05 02:14 | 37.07765 | 116.87201 | 37939 ft | 405 kts | 322° |
| 2026-05-05 02:15 | 37.10184 | 116.85355 | 37941 ft | 406 kts | 335° |
| 2026-05-05 02:15 | 37.15395 | 116.82671 | 37931 ft | 406 kts | 336° |
| 2026-05-05 02:16 | 37.20629 | 116.79998 | 37951 ft | 406 kts | 336° |
| 2026-05-05 02:16 | 37.25948 | 116.77541 | 37940 ft | 415 kts | 341° |
| 2026-05-05 02:17 | 37.31622 | 116.75614 | 37935 ft | 427 kts | 343° |
| 2026-05-05 02:17 | 37.42675 | 116.71528 | 37848 ft | 435 kts | 342° |
| 2026-05-05 02:17 | 37.50718 | 116.68474 | 37189 ft | 433 kts | 342° |
| 2026-05-05 02:18 | 37.58672 | 116.65440 | 36408 ft | 428 kts | 342° |
| 2026-05-05 02:18 | 37.66547 | 116.62434 | 35744 ft | 425 kts | 342° |
| 2026-05-05 02:18 | 37.74368 | 116.59447 | 35078 ft | 426 kts | 342° |
| 2026-05-05 02:18 | 37.82293 | 116.56409 | 33435 ft | 431 kts | 342° |
| 2026-05-05 02:19 | 37.90356 | 116.53310 | 30258 ft | 442 kts | 343° |
| 2026-05-05 02:19 | 37.98435 | 116.49920 | 28139 ft | 443 kts | 336° |
| 2026-05-05 02:19 | 38.04345 | 116.45252 | 27486 ft | 433 kts | 321° |
| 2026-05-05 02:19 | 38.08883 | 116.40325 | 26896 ft | 426 kts | 321° |
| 2026-05-05 02:20 | 38.13571 | 116.35671 | 25499 ft | 428 kts | 324° |
| 2026-05-05 02:20 | 38.18384 | 116.31307 | 24851 ft | 420 kts | 325° |
| 2026-05-05 02:20 | 38.23058 | 116.27090 | 24291 ft | 414 kts | 325° |
| 2026-05-05 02:20 | 38.28097 | 116.23661 | 23614 ft | 412 kts | 342° |
| 2026-05-05 02:21 | 38.33746 | 116.22898 | 23076 ft | 412 kts | 4° |
| 2026-05-05 02:21 | 38.39245 | 116.24734 | 22524 ft | 412 kts | 19° |
| 2026-05-05 02:21 | 38.44533 | 116.27526 | 21917 ft | 409 kts | 21° |
| 2026-05-05 02:21 | 38.49763 | 116.30306 | 21332 ft | 406 kts | 20° |
| 2026-05-05 02:22 | 38.55043 | 116.32922 | 20746 ft | 403 kts | 19° |
| 2026-05-05 02:22 | 38.60075 | 116.35326 | 19803 ft | 403 kts | 18° |
| 2026-05-05 02:22 | 38.62707 | 116.36652 | 18965 ft | 411 kts | 24° |
| 2026-05-05 02:22 | 38.65029 | 116.38796 | 18287 ft | 416 kts | 43° |
| 2026-05-05 02:23 | 38.66816 | 116.41681 | 17845 ft | 414 kts | 56° |
| 2026-05-05 02:23 | 38.68310 | 116.44815 | 17497 ft | 407 kts | 57° |
| 2026-05-05 02:23 | 38.69741 | 116.47855 | 17475 ft | 394 kts | 57° |
| 2026-05-05 02:23 | 38.71161 | 116.50857 | 17479 ft | 394 kts | 57° |
| 2026-05-05 02:24 | 38.72584 | 116.53839 | 17478 ft | 394 kts | 57° |
| 2026-05-05 02:24 | 38.74020 | 116.56829 | 17478 ft | 394 kts | 57° |
| 2026-05-05 02:24 | 38.75455 | 116.59810 | 17475 ft | 394 kts | 57° |
| 2026-05-05 02:24 | 38.76893 | 116.62793 | 17481 ft | 394 kts | 57° |
| 2026-05-05 02:25 | 38.78314 | 116.65738 | 17486 ft | 394 kts | 57° |
| 2026-05-05 02:25 | 38.79760 | 116.68739 | 17489 ft | 394 kts | 57° |
| 2026-05-05 02:25 | 38.83904 | 116.77352 | 17498 ft | 394 kts | 57° |
| 2026-05-05 02:25 | 38.92450 | 116.95169 | 17502 ft | 394 kts | 57° |
| 2026-05-05 02:26 | 39.00801 | 117.12676 | 17520 ft | 395 kts | 57° |
| 2026-05-05 02:26 | 39.02457 | 117.15479 | 17490 ft | 393 kts | 40° |
| 2026-05-05 02:26 | 39.04697 | 117.17155 | 17493 ft | 390 kts | 16° |
| 2026-05-05 02:26 | 39.07251 | 117.17518 | 17493 ft | 386 kts | 352° |
| 2026-05-05 02:27 | 39.09686 | 117.16539 | 17502 ft | 384 kts | 332° |
| 2026-05-05 02:27 | 39.11964 | 117.15007 | 17507 ft | 384 kts | 332° |
| 2026-05-05 02:27 | 39.14301 | 117.13599 | 17496 ft | 384 kts | 335° |
| 2026-05-05 02:27 | 39.16669 | 117.12324 | 17488 ft | 384 kts | 337° |
| 2026-05-05 02:28 | 39.25351 | 117.08097 | 17479 ft | 384 kts | 339° |
| 2026-05-05 02:28 | 39.40586 | 117.01405 | 16154 ft | 383 kts | 340° |
| 2026-05-05 02:28 | 39.55662 | 116.94700 | 13581 ft | 381 kts | 338° |
| 2026-05-05 02:28 | 39.62674 | 116.91724 | 11750 ft | 384 kts | 345° |
| 2026-05-05 02:29 | 39.67792 | 116.90779 | 10522 ft | 371 kts | 352° |
| 2026-05-05 02:29 | 39.72680 | 116.90247 | 10159 ft | 352 kts | 352° |
| 2026-05-05 02:29 | 39.77288 | 116.89686 | 9838 ft | 328 kts | 351° |
| 2026-05-05 02:29 | 39.81572 | 116.89073 | 9627 ft | 307 kts | 349° |
| 2026-05-05 02:30 | 39.85720 | 116.88428 | 9381 ft | 303 kts | 349° |
| 2026-05-05 02:30 | 39.89787 | 116.87787 | 9141 ft | 302 kts | 349° |
| 2026-05-05 02:30 | 39.93883 | 116.87156 | 8881 ft | 301 kts | 349° |
| 2026-05-05 02:30 | 39.96675 | 116.86731 | 8668 ft | 301 kts | 349° |
| 2026-05-05 02:31 | 39.98764 | 116.86411 | 8377 ft | 303 kts | 349° |
| 2026-05-05 02:31 | 40.00875 | 116.86089 | 7992 ft | 306 kts | 348° |
| 2026-05-05 02:31 | 40.02881 | 116.85352 | 7684 ft | 294 kts | 323° |
| 2026-05-05 02:31 | 40.04231 | 116.83536 | 7480 ft | 275 kts | 291° |
| 2026-05-05 02:32 | 40.04627 | 116.81205 | 7272 ft | 261 kts | 264° |
| 2026-05-05 02:32 | 40.04314 | 116.78887 | 7073 ft | 254 kts | 249° |
| 2026-05-05 02:32 | 40.03468 | 116.76903 | 6950 ft | 250 kts | 231° |
| 2026-05-05 02:32 | 40.02150 | 116.75417 | 6903 ft | 256 kts | 212° |
| 2026-05-05 02:33 | 40.00466 | 116.74606 | 6877 ft | 262 kts | 193° |
| 2026-05-05 02:33 | 39.98625 | 116.74610 | 6877 ft | 267 kts | 179° |
| 2026-05-05 02:33 | 39.96766 | 116.74886 | 6860 ft | 268 kts | 178° |
| 2026-05-05 02:33 | 39.94923 | 116.75175 | 6852 ft | 268 kts | 178° |
| 2026-05-05 02:34 | 39.93064 | 116.75466 | 6850 ft | 268 kts | 178° |
| 2026-05-05 02:34 | 39.91217 | 116.75754 | 6847 ft | 268 kts | 178° |
| 2026-05-05 02:34 | 39.89373 | 116.76040 | 6844 ft | 268 kts | 178° |
| 2026-05-05 02:34 | 39.87128 | 116.76386 | 6785 ft | 268 kts | 178° |
| 2026-05-05 02:35 | 39.85259 | 116.76674 | 6482 ft | 271 kts | 178° |
| 2026-05-05 02:35 | 39.83363 | 116.76965 | 6172 ft | 272 kts | 178° |
| 2026-05-05 02:35 | 39.81500 | 116.77251 | 5900 ft | 272 kts | 178° |
| 2026-05-05 02:35 | 39.79613 | 116.77538 | 5616 ft | 272 kts | 178° |
| 2026-05-05 02:36 | 39.77739 | 116.77824 | 5341 ft | 271 kts | 177° |
| 2026-05-05 02:36 | 39.75858 | 116.78110 | 5063 ft | 271 kts | 177° |
| 2026-05-05 02:36 | 39.73996 | 116.78395 | 4949 ft | 263 kts | 176° |
| 2026-05-05 02:36 | 39.72216 | 116.78673 | 4938 ft | 253 kts | 177° |
| 2026-05-05 02:37 | 39.70505 | 116.78884 | 4895 ft | 241 kts | 186° |
| 2026-05-05 02:37 | 39.69004 | 116.78172 | 4821 ft | 226 kts | 224° |
| 2026-05-05 02:37 | 39.68232 | 116.76461 | 4591 ft | 227 kts | 258° |
| 2026-05-05 02:37 | 39.68087 | 116.74414 | 4355 ft | 229 kts | 263° |
| 2026-05-05 02:38 | 39.67943 | 116.72352 | 4107 ft | 230 kts | 262° |
| 2026-05-05 02:38 | 39.67775 | 116.70279 | 3869 ft | 231 kts | 264° |
| 2026-05-05 02:38 | 39.68049 | 116.68257 | 3771 ft | 231 kts | 300° |
| 2026-05-05 02:38 | 39.69255 | 116.66885 | 3584 ft | 242 kts | 338° |
| 2026-05-05 02:39 | 39.70925 | 116.66573 | 3370 ft | 244 kts | 359° |
| 2026-05-05 02:39 | 39.72619 | 116.66591 | 3161 ft | 244 kts | 359° |
| 2026-05-05 02:39 | 39.74323 | 116.66548 | 2902 ft | 240 kts | 356° |
| 2026-05-05 02:39 | 39.75974 | 116.66402 | 2633 ft | 232 kts | 355° |
| 2026-05-05 02:40 | 39.77550 | 116.66202 | 2392 ft | 225 kts | 354° |
| 2026-05-05 02:40 | 39.79071 | 116.65981 | 2260 ft | 213 kts | 353° |
| 2026-05-05 02:40 | 39.80494 | 116.65762 | 2262 ft | 200 kts | 353° |
| 2026-05-05 02:40 | 39.81886 | 116.65543 | 2290 ft | 201 kts | 353° |
| 2026-05-05 02:41 | 39.83270 | 116.65322 | 2320 ft | 201 kts | 353° |
| 2026-05-05 02:41 | 39.84640 | 116.65102 | 2348 ft | 191 kts | 353° |
| 2026-05-05 02:41 | 39.85883 | 116.64904 | 2358 ft | 171 kts | 353° |
| 2026-05-05 02:41 | 39.87014 | 116.64723 | 2349 ft | 160 kts | 353° |
| 2026-05-05 02:42 | 39.88130 | 116.64546 | 2373 ft | 160 kts | 353° |
| 2026-05-05 02:42 | 39.89237 | 116.64371 | 2394 ft | 160 kts | 353° |
| 2026-05-05 02:42 | 39.90650 | 116.64147 | 2407 ft | 161 kts | 353° |
| 2026-05-05 02:42 | 39.91793 | 116.63967 | 2437 ft | 161 kts | 353° |
| 2026-05-05 02:43 | 39.92892 | 116.63795 | 2461 ft | 160 kts | 353° |
| 2026-05-05 02:43 | 39.94013 | 116.63618 | 2385 ft | 161 kts | 353° |
| 2026-05-05 02:43 | 39.95112 | 116.63446 | 2186 ft | 159 kts | 353° |
| 2026-05-05 02:43 | 39.96220 | 116.63272 | 1981 ft | 158 kts | 354° |
| 2026-05-05 02:44 | 39.97311 | 116.63100 | 1778 ft | 158 kts | 354° |
| 2026-05-05 02:44 | 39.98395 | 116.62931 | 1577 ft | 157 kts | 354° |
| 2026-05-05 02:44 | 39.99487 | 116.62760 | 1373 ft | 156 kts | 354° |
| 2026-05-05 02:44 | 40.00560 | 116.62592 | 1171 ft | 155 kts | 354° |
| 2026-05-05 02:45 | 40.01619 | 116.62427 | 971 ft | 154 kts | 355° |
| 2026-05-05 02:45 | 40.02678 | 116.62260 | 771 ft | 153 kts | 355° |
| 2026-05-05 02:45 | 40.03746 | 116.62093 | 570 ft | 153 kts | 355° |
| 2026-05-05 02:45 | 40.04798 | 116.61927 | 371 ft | 153 kts | 355° |
| 2026-05-05 02:46 | 40.05848 | 116.61766 | 170 ft | 151 kts | 355° |
| 2026-05-05 02:46 | 40.06839 | 116.61623 | 132 ft | 116 kts | 351° |
| 2026-05-05 02:46 | 40.07333 | 116.61481 | 131 ft | 29 kts | 330° |
| 2026-05-05 02:46 | 40.07497 | 116.61341 | 131 ft | 24 kts | 324° |
| 2026-05-05 02:47 | 40.07560 | 116.61227 | 131 ft | 12 kts | 262° |